Time;durP1;ratioP1;P1;durP2;ratioP2;P2;SDS_P1;SDS_P2;PMS_P1;PMS_P2;Temp;Humidity;BMP_temperature;BMP_pressure;BME280_temperature;BME280_humidity;BME280_pressure;Samples;Min_cycle;Max_cycle;Signal;HPM_P1;HPM_P2
2022/11/28 00:01:46;;;;;;;;;;;5.00;99.90;;;;;;5089045;28;19991;-59
2022/11/28 00:04:11;;;;;;;;;;;5.00;99.90;;;;;;5090533;28;19908;-57
2022/11/28 00:06:44;;;;;;;;;;;5.00;99.90;;;;;;5089316;28;19998;-59
2022/11/28 00:09:10;;;;;;;;;;;5.00;99.90;;;;;;5089367;28;20372;-57
2022/11/28 00:11:37;;;;;;;;;;;5.00;99.90;;;;;;5089342;28;19918;-59
2022/11/28 00:14:03;;;;;;;;;;;4.90;99.90;;;;;;5089157;28;20324;-58
2022/11/28 00:16:28;;;;;;;;;;;5.00;99.90;;;;;;5089427;28;19965;-58
2022/11/28 00:18:54;;;;;;;;;;;5.00;99.90;;;;;;5088625;28;19908;-58
2022/11/28 00:21:19;;;;;;;;;;;5.00;99.90;;;;;;5089244;28;19908;-58
2022/11/28 00:23:45;;;;;;;;;;;5.00;99.90;;;;;;5089739;28;19994;-57
2022/11/28 00:26:12;;;;;;;;;;;5.00;99.90;;;;;;5088614;28;19908;-55
2022/11/28 00:28:38;;;;;;;;;;;5.00;99.90;;;;;;5089258;28;19963;-56
2022/11/28 00:31:04;;;;;;;;;;;5.00;99.90;;;;;;5088948;28;19908;-56
2022/11/28 00:33:30;;;;;;;;;;;5.00;99.90;;;;;;5088874;28;19911;-56
2022/11/28 00:35:57;;;;;;;;;;;5.00;99.90;;;;;;5092071;28;19914;-57
2022/11/28 00:38:22;;;;;;;;;;;5.00;99.90;;;;;;5092890;28;19908;-55
2022/11/28 00:40:47;;;;;;;;;;;5.00;99.90;;;;;;5093144;28;20007;-59
2022/11/28 00:43:13;;;;;;;;;;;5.00;99.90;;;;;;5092309;28;19908;-58
2022/11/28 00:45:39;;;;;;;;;;;5.00;99.90;;;;;;5095564;22;19924;-58
2022/11/28 00:48:04;;;;;;;;;;;5.00;99.90;;;;;;5062187;28;19912;-57
2022/11/28 00:50:30;;;;;;;;;;;5.00;99.90;;;;;;5065065;28;19908;-55
2022/11/28 00:52:55;;;;;;;;;;;5.00;99.90;;;;;;5072064;28;19915;-58
2022/11/28 00:55:21;;;;;;;;;;;5.00;99.90;;;;;;5054575;28;20292;-56
2022/11/28 00:57:46;;;;;;;;;;;5.00;99.90;;;;;;5072639;28;19913;-56
2022/11/28 01:00:12;;;;;;;;;;;5.00;99.90;;;;;;5065979;28;19909;-59
2022/11/28 01:02:37;;;;;;;;;;;5.00;99.90;;;;;;5072217;28;19920;-58
2022/11/28 01:05:03;;;;;;;;;;;4.90;99.90;;;;;;5072439;28;20268;-58
2022/11/28 01:07:31;;;;;;;;;;;5.00;99.90;;;;;;5066291;28;19926;-57
2022/11/28 01:09:56;;;;;;;;;;;5.00;99.90;;;;;;5072009;28;20445;-58
2022/11/28 01:12:22;;;;;;;;;;;5.00;99.90;;;;;;5076323;28;19904;-57
2022/11/28 01:14:47;;;;;;;;;;;5.00;99.90;;;;;;5072882;28;19904;-56
2022/11/28 01:17:13;;;;;;;;;;;5.00;99.90;;;;;;5075699;28;19994;-58
2022/11/28 01:19:38;;;;;;;;;;;5.00;99.90;;;;;;5072440;28;19905;-56
2022/11/28 01:22:05;;;;;;;;;;;5.00;99.90;;;;;;5068419;28;19920;-56
2022/11/28 01:24:31;;;;;;;;;;;5.00;99.90;;;;;;5071906;28;20303;-57
2022/11/28 01:26:56;;;;;;;;;;;5.00;99.90;;;;;;5071922;28;19908;-57
2022/11/28 01:29:22;;;;;;;;;;;5.00;99.90;;;;;;5071802;28;19912;-57
2022/11/28 01:31:47;;;;;;;;;;;5.00;99.90;;;;;;5071671;28;19957;-56
2022/11/28 01:34:13;;;;;;;;;;;5.00;99.90;;;;;;5071778;28;19912;-56
2022/11/28 01:36:38;;;;;;;;;;;5.00;99.90;;;;;;5062247;28;19909;-58
2022/11/28 01:39:04;;;;;;;;;;;5.00;99.90;;;;;;5071673;28;19987;-55
2022/11/28 01:41:29;;;;;;;;;;;5.00;99.90;;;;;;5065603;28;20169;-55
2022/11/28 01:43:57;;;;;;;;;;;4.90;99.90;;;;;;5071256;28;19908;-57
2022/11/28 01:46:23;;;;;;;;;;;5.00;99.90;;;;;;5070774;28;19916;-58
2022/11/28 01:48:49;;;;;;;;;;;5.00;99.90;;;;;;5069657;28;20080;-55
2022/11/28 01:51:14;;;;;;;;;;;5.00;99.90;;;;;;5071546;28;19908;-53
2022/11/28 01:53:41;;;;;;;;;;;5.00;99.90;;;;;;5061858;28;19916;-57
2022/11/28 01:56:08;;;;;;;;;;;5.00;99.90;;;;;;5071638;28;19904;-57
2022/11/28 01:58:37;;;;;;;;;;;4.90;99.90;;;;;;5061800;28;20396;-58
2022/11/28 02:01:03;;;;;;;;;;;4.90;99.90;;;;;;5066870;28;19912;-57
2022/11/28 02:03:42;;;;;;;;;;;5.00;99.90;;;;;;5058864;28;19919;-58
2022/11/28 02:06:09;;;;;;;;;;;5.00;99.90;;;;;;5060977;28;19908;-57
2022/11/28 02:08:35;;;;;;;;;;;4.90;99.90;;;;;;5070975;28;20364;-58
2022/11/28 02:11:27;;;;;;;;;;;4.90;99.90;;;;;;5070703;28;19990;-58
2022/11/28 02:14:02;;;;;;;;;;;4.90;99.90;;;;;;5066431;28;20315;-57
2022/11/28 02:16:39;;;;;;;;;;;4.90;99.90;;;;;;5071108;28;20289;-57
2022/11/28 02:19:23;;;;;;;;;;;4.90;99.90;;;;;;5066767;28;19912;-57
2022/11/28 02:21:58;;;;;;;;;;;4.90;99.90;;;;;;5059702;28;19908;-58
2022/11/28 02:24:23;;;;;;;;;;;4.90;99.90;;;;;;5069790;28;19916;-56
2022/11/28 02:26:52;;;;;;;;;;;4.90;99.90;;;;;;5070641;28;19908;-55
2022/11/28 02:29:17;;;;;;;;;;;4.90;99.90;;;;;;5063939;28;20384;-59
2022/11/28 02:32:01;;;;;;;;;;;4.90;99.90;;;;;;5070292;28;19957;-57
2022/11/28 02:34:30;;;;;;;;;;;4.90;99.90;;;;;;5059319;28;19920;-58
2022/11/28 02:37:02;;;;;;;;;;;4.80;99.90;;;;;;5070537;28;19961;-57
2022/11/28 02:39:27;;;;;;;;;;;4.90;99.90;;;;;;5065547;28;19912;-57
2022/11/28 02:41:55;;;;;;;;;;;4.80;99.90;;;;;;5069606;28;19965;-58
2022/11/28 02:44:20;;;;;;;;;;;4.80;99.90;;;;;;5070031;28;19908;-55
2022/11/28 02:46:52;;;;;;;;;;;4.80;99.90;;;;;;5070294;28;19919;-53
2022/11/28 02:49:31;;;;;;;;;;;4.90;99.90;;;;;;5062450;28;19916;-57
2022/11/28 02:51:59;;;;;;;;;;;4.90;99.90;;;;;;5069647;28;20352;-55
2022/11/28 02:54:26;;;;;;;;;;;4.80;99.90;;;;;;5067322;28;19908;-57
2022/11/28 02:56:52;;;;;;;;;;;4.90;99.90;;;;;;5069099;28;19915;-59
2022/11/28 02:59:32;;;;;;;;;;;4.90;99.90;;;;;;5066143;28;19908;-57
2022/11/28 03:01:59;;;;;;;;;;;4.80;99.90;;;;;;5069731;28;19905;-57
2022/11/28 03:04:28;;;;;;;;;;;4.80;99.90;;;;;;5069908;28;20429;-58
2022/11/28 03:07:12;;;;;;;;;;;4.80;99.90;;;;;;5060609;28;19919;-58
2022/11/28 03:09:56;;;;;;;;;;;4.80;99.90;;;;;;5065006;28;19923;-57
2022/11/28 03:12:33;;;;;;;;;;;4.80;99.90;;;;;;5069765;28;19974;-57
2022/11/28 03:15:03;;;;;;;;;;;4.80;99.90;;;;;;5057869;28;19990;-58
2022/11/28 03:17:36;;;;;;;;;;;4.80;99.90;;;;;;5069623;28;20406;-57
2022/11/28 03:20:02;;;;;;;;;;;4.80;99.90;;;;;;5064227;28;19908;-59
2022/11/28 03:22:31;;;;;;;;;;;4.80;99.90;;;;;;5069183;28;19923;-58
2022/11/28 03:25:12;;;;;;;;;;;4.80;99.90;;;;;;5069509;28;19908;-57
2022/11/28 03:27:43;;;;;;;;;;;4.80;99.90;;;;;;5069294;28;19939;-56
2022/11/28 03:30:28;;;;;;;;;;;4.80;99.90;;;;;;5067442;28;19908;-58
2022/11/28 03:32:55;;;;;;;;;;;4.80;99.90;;;;;;5069136;28;19912;-58
2022/11/28 03:35:22;;;;;;;;;;;4.80;99.90;;;;;;5069440;28;19998;-57
2022/11/28 03:37:53;;;;;;;;;;;4.80;99.90;;;;;;5059425;28;19945;-57
2022/11/28 03:40:24;;;;;;;;;;;4.80;99.90;;;;;;5061201;28;19951;-58
2022/11/28 03:42:53;;;;;;;;;;;4.80;99.90;;;;;;5050298;28;19909;-58
2022/11/28 03:45:21;;;;;;;;;;;4.80;99.90;;;;;;5054737;28;20308;-58
2022/11/28 03:47:51;;;;;;;;;;;4.80;99.90;;;;;;5069297;28;19912;-57
2022/11/28 03:50:19;;;;;;;;;;;4.80;99.90;;;;;;5061315;28;19930;-57
2022/11/28 03:52:48;;;;;;;;;;;4.80;99.90;;;;;;5066127;28;19904;-56
2022/11/28 03:55:20;;;;;;;;;;;4.80;99.90;;;;;;5069251;28;19999;-57
2022/11/28 03:57:49;;;;;;;;;;;4.80;99.90;;;;;;5070519;28;20368;-56
2022/11/28 04:00:15;;;;;;;;;;;4.80;99.90;;;;;;5061471;28;19909;-57
2022/11/28 04:02:47;;;;;;;;;;;4.80;99.90;;;;;;5069260;28;19908;-56
2022/11/28 04:05:33;;;;;;;;;;;4.90;99.90;;;;;;5069102;28;19974;-56
2022/11/28 04:08:18;;;;;;;;;;;4.80;99.90;;;;;;5058826;28;19904;-58
2022/11/28 04:10:43;;;;;;;;;;;4.80;99.90;;;;;;5065447;28;19915;-57
2022/11/28 04:13:27;;;;;;;;;;;4.80;99.90;;;;;;5068702;28;19905;-58
2022/11/28 04:15:55;;;;;;;;;;;4.80;99.90;;;;;;5068993;28;20028;-56
2022/11/28 04:18:21;;;;;;;;;;;4.80;99.90;;;;;;5069009;28;19904;-55
2022/11/28 04:20:57;;;;;;;;;;;4.80;99.90;;;;;;5067717;28;19928;-57
2022/11/28 04:23:23;;;;;;;;;;;4.80;99.90;;;;;;5049079;28;20010;-55
2022/11/28 04:25:55;;;;;;;;;;;4.80;99.90;;;;;;5069477;28;20006;-56
2022/11/28 04:28:23;;;;;;;;;;;4.80;99.90;;;;;;5060905;28;19939;-58
2022/11/28 04:30:50;;;;;;;;;;;4.80;99.90;;;;;;5069093;28;20004;-58
2022/11/28 04:33:17;;;;;;;;;;;4.80;99.90;;;;;;5057736;28;19970;-53
2022/11/28 04:35:46;;;;;;;;;;;4.80;99.90;;;;;;5062928;28;20245;-54
2022/11/28 04:38:12;;;;;;;;;;;4.80;99.90;;;;;;5059193;28;19904;-56
2022/11/28 04:40:41;;;;;;;;;;;4.80;99.90;;;;;;5068878;28;20300;-56
2022/11/28 04:43:15;;;;;;;;;;;4.80;99.90;;;;;;5052927;28;19943;-57
2022/11/28 04:45:48;;;;;;;;;;;4.80;99.90;;;;;;5068451;28;19965;-55
2022/11/28 04:48:14;;;;;;;;;;;4.80;99.90;;;;;;5064758;28;19916;-52
2022/11/28 04:50:46;;;;;;;;;;;4.70;99.90;;;;;;5068857;28;19916;-56
2022/11/28 04:53:15;;;;;;;;;;;4.70;99.90;;;;;;5066669;28;19908;-52
2022/11/28 04:55:48;;;;;;;;;;;4.70;99.90;;;;;;5069000;28;19908;-56
2022/11/28 04:58:17;;;;;;;;;;;4.80;99.90;;;;;;5068848;28;20396;-57
2022/11/28 05:00:42;;;;;;;;;;;4.70;99.90;;;;;;5068990;28;19908;-52
2022/11/28 05:03:08;;;;;;;;;;;4.70;99.90;;;;;;5068956;28;19919;-57
2022/11/28 05:05:41;;;;;;;;;;;4.70;99.90;;;;;;5068883;28;20338;-54
2022/11/28 05:08:06;;;;;;;;;;;4.80;99.90;;;;;;5069141;28;19912;-57
2022/11/28 05:10:32;;;;;;;;;;;4.70;99.90;;;;;;5068305;28;19915;-56
2022/11/28 05:12:57;;;;;;;;;;;4.70;99.90;;;;;;5067901;28;19962;-58
2022/11/28 05:15:23;;;;;;;;;;;4.70;99.90;;;;;;5058822;28;20379;-55
2022/11/28 05:17:48;;;;;;;;;;;4.70;99.90;;;;;;5058700;28;19904;-57
2022/11/28 05:20:14;;;;;;;;;;;4.70;99.90;;;;;;5073452;28;19912;-56
2022/11/28 05:22:39;;;;;;;;;;;4.70;99.90;;;;;;5071786;28;19998;-55
2022/11/28 05:25:05;;;;;;;;;;;4.70;99.90;;;;;;5071867;28;19904;-57
2022/11/28 05:27:30;;;;;;;;;;;4.70;99.90;;;;;;5061698;28;19947;-55
2022/11/28 05:29:56;;;;;;;;;;;4.70;99.90;;;;;;5071998;28;19930;-56
2022/11/28 05:32:21;;;;;;;;;;;4.60;99.90;;;;;;5071524;28;19908;-57
2022/11/28 05:34:47;;;;;;;;;;;4.70;99.90;;;;;;5071594;28;20415;-57
2022/11/28 05:37:12;;;;;;;;;;;4.70;99.90;;;;;;5072139;28;20422;-57
2022/11/28 05:39:38;;;;;;;;;;;4.60;99.90;;;;;;5062241;28;19904;-55
2022/11/28 05:42:03;;;;;;;;;;;4.60;99.90;;;;;;5067777;28;20226;-57
2022/11/28 05:44:29;;;;;;;;;;;4.60;99.90;;;;;;5071241;28;20269;-56
2022/11/28 05:46:54;;;;;;;;;;;4.60;99.90;;;;;;5071714;28;19904;-58
2022/11/28 05:49:20;;;;;;;;;;;4.60;99.90;;;;;;5071282;28;19919;-56
2022/11/28 05:51:46;;;;;;;;;;;4.60;99.90;;;;;;5057852;28;19909;-56
2022/11/28 05:54:12;;;;;;;;;;;4.60;99.90;;;;;;5071066;28;19908;-59
2022/11/28 05:56:37;;;;;;;;;;;4.60;99.90;;;;;;5063881;28;19969;-57
2022/11/28 05:59:03;;;;;;;;;;;4.60;99.90;;;;;;5065604;28;20629;-56
2022/11/28 06:01:28;;;;;;;;;;;4.60;99.90;;;;;;5070749;28;19912;-55
2022/11/28 06:03:59;;;;;;;;;;;4.50;99.90;;;;;;5059116;28;19958;-58
2022/11/28 06:06:25;;;;;;;;;;;4.60;99.90;;;;;;5070783;28;19940;-57
2022/11/28 06:08:51;;;;;;;;;;;4.50;99.90;;;;;;5070860;28;20143;-58
2022/11/28 06:11:17;;;;;;;;;;;4.50;99.90;;;;;;5070555;28;19908;-56
2022/11/28 06:13:43;;;;;;;;;;;4.50;99.90;;;;;;5071131;28;20411;-56
2022/11/28 06:16:10;;;;;;;;;;;4.50;99.90;;;;;;5066687;28;20388;-54
2022/11/28 06:18:35;;;;;;;;;;;4.50;99.90;;;;;;5053059;28;20395;-54
2022/11/28 06:21:01;;;;;;;;;;;4.50;99.90;;;;;;5056538;28;19944;-58
2022/11/28 06:23:27;;;;;;;;;;;4.50;99.90;;;;;;5070772;28;19928;-58
2022/11/28 06:25:52;;;;;;;;;;;4.50;99.90;;;;;;5070265;28;19908;-54
2022/11/28 06:28:18;;;;;;;;;;;4.50;99.90;;;;;;5058414;28;19940;-56
2022/11/28 06:30:43;;;;;;;;;;;4.50;99.90;;;;;;5070487;28;19912;-52
2022/11/28 06:33:09;;;;;;;;;;;4.50;99.90;;;;;;5065554;28;19920;-57
2022/11/28 06:35:34;;;;;;;;;;;4.50;99.90;;;;;;5070518;28;20291;-56
2022/11/28 06:38:00;;;;;;;;;;;4.50;99.90;;;;;;5058083;28;19909;-57
2022/11/28 06:40:25;;;;;;;;;;;4.50;99.90;;;;;;5068612;28;19915;-57
2022/11/28 06:42:51;;;;;;;;;;;4.50;99.90;;;;;;5069606;28;20268;-56
2022/11/28 06:45:16;;;;;;;;;;;4.50;99.90;;;;;;5092989;22;19933;-57
2022/11/28 06:47:42;;;;;;;;;;;4.50;99.90;;;;;;5081154;28;19923;-55
2022/11/28 06:50:08;;;;;;;;;;;4.50;99.90;;;;;;5086606;28;19916;-53
2022/11/28 06:52:34;;;;;;;;;;;4.50;99.90;;;;;;5090368;28;20275;-58
2022/11/28 06:55:00;;;;;;;;;;;4.50;99.90;;;;;;5090552;28;19904;-56
2022/11/28 06:57:25;;;;;;;;;;;4.50;99.90;;;;;;5090064;28;20410;-55
2022/11/28 06:59:51;;;;;;;;;;;4.40;99.90;;;;;;5089795;28;19949;-58
2022/11/28 07:02:16;;;;;;;;;;;4.40;99.90;;;;;;5089626;28;19904;-54
2022/11/28 07:04:42;;;;;;;;;;;4.50;99.90;;;;;;5089915;28;19908;-55
2022/11/28 07:07:07;;;;;;;;;;;4.40;99.90;;;;;;5089868;28;19912;-54
2022/11/28 07:09:33;;;;;;;;;;;4.50;99.90;;;;;;5090009;28;19961;-54
2022/11/28 07:11:58;;;;;;;;;;;4.40;99.90;;;;;;5089972;28;20466;-57
2022/11/28 07:14:24;;;;;;;;;;;4.40;99.90;;;;;;5090227;28;19904;-55
2022/11/28 07:16:49;;;;;;;;;;;4.50;99.90;;;;;;5089899;28;19912;-57
2022/11/28 07:19:15;;;;;;;;;;;4.40;99.90;;;;;;5089710;28;19904;-54
2022/11/28 07:21:41;;;;;;;;;;;4.50;99.90;;;;;;5089355;28;19985;-54
2022/11/28 07:24:06;;;;;;;;;;;4.40;99.90;;;;;;5090522;28;19904;-57
2022/11/28 07:26:32;;;;;;;;;;;4.40;99.90;;;;;;5089577;28;19908;-55
2022/11/28 07:28:58;;;;;;;;;;;4.40;99.90;;;;;;5090318;28;19908;-58
2022/11/28 07:31:26;;;;;;;;;;;4.50;99.90;;;;;;5089597;28;19999;-57
2022/11/28 07:33:52;;;;;;;;;;;4.50;99.90;;;;;;5089638;28;19912;-57
2022/11/28 07:36:22;;;;;;;;;;;4.40;99.90;;;;;;5089599;28;19908;-57
2022/11/28 07:38:51;;;;;;;;;;;4.40;99.90;;;;;;5089673;28;20375;-56
2022/11/28 07:41:17;;;;;;;;;;;4.50;99.90;;;;;;5081412;28;19911;-58
2022/11/28 07:43:43;;;;;;;;;;;4.40;99.90;;;;;;5088898;28;19908;-57
2022/11/28 07:46:10;;;;;;;;;;;4.50;99.90;;;;;;5088885;28;19916;-58
2022/11/28 07:48:36;;;;;;;;;;;4.50;99.90;;;;;;5088976;28;20298;-56
2022/11/28 07:51:05;;;;;;;;;;;4.50;99.90;;;;;;5088439;28;19919;-57
2022/11/28 07:53:31;;;;;;;;;;;4.50;99.90;;;;;;5089287;28;19903;-57
2022/11/28 07:55:59;;;;;;;;;;;4.50;99.90;;;;;;5089331;28;20431;-58
2022/11/28 07:58:25;;;;;;;;;;;4.50;99.90;;;;;;5088865;28;19908;-58
2022/11/28 08:00:50;;;;;;;;;;;4.60;99.90;;;;;;5089696;28;19904;-57
2022/11/28 08:03:16;;;;;;;;;;;4.60;99.90;;;;;;5089245;28;19911;-57
2022/11/28 08:05:48;;;;;;;;;;;4.60;99.90;;;;;;5089655;28;20432;-57
2022/11/28 08:08:14;;;;;;;;;;;4.60;99.90;;;;;;5089622;28;19956;-54
2022/11/28 08:10:39;;;;;;;;;;;4.60;99.90;;;;;;5089720;28;20230;-58
2022/11/28 08:13:05;;;;;;;;;;;4.60;99.90;;;;;;5089490;28;19904;-59
2022/11/28 08:15:31;;;;;;;;;;;4.60;99.90;;;;;;5089603;28;19905;-58
2022/11/28 08:17:56;;;;;;;;;;;4.60;99.90;;;;;;5089387;28;19904;-58
2022/11/28 08:20:22;;;;;;;;;;;4.60;99.90;;;;;;5089958;28;19964;-58
2022/11/28 08:22:47;;;;;;;;;;;4.60;99.90;;;;;;5089462;28;19904;-59
2022/11/28 08:25:13;;;;;;;;;;;4.60;99.90;;;;;;5089578;28;19908;-58
2022/11/28 08:27:38;;;;;;;;;;;4.60;99.90;;;;;;5089110;28;19981;-57
2022/11/28 08:30:04;;;;;;;;;;;4.60;99.90;;;;;;5089061;28;19908;-57
2022/11/28 08:32:30;;;;;;;;;;;4.60;99.90;;;;;;5088836;28;19911;-59
2022/11/28 08:34:56;;;;;;;;;;;4.60;99.90;;;;;;5096284;28;19908;-58
2022/11/28 08:37:21;;;;;;;;;;;4.60;99.90;;;;;;5089996;28;19940;-57
2022/11/28 08:39:47;;;;;;;;;;;4.70;99.90;;;;;;5095448;28;20367;-56
2022/11/28 08:42:12;;;;;;;;;;;4.70;99.90;;;;;;5096404;28;19990;-58
2022/11/28 08:44:38;;;;;;;;;;;4.70;99.90;;;;;;5092256;28;19938;-58
2022/11/28 08:47:03;;;;;;;;;;;4.70;99.90;;;;;;5090233;28;19977;-54
2022/11/28 08:49:28;;;;;;;;;;;4.70;99.90;;;;;;5089128;28;19912;-57
2022/11/28 08:51:54;;;;;;;;;;;4.70;99.90;;;;;;5089540;28;19904;-57
2022/11/28 08:54:19;;;;;;;;;;;4.70;99.90;;;;;;5089291;28;20385;-53
2022/11/28 08:56:46;;;;;;;;;;;4.80;99.90;;;;;;5092576;28;20290;-56
2022/11/28 08:59:11;;;;;;;;;;;4.80;99.90;;;;;;5092711;28;19962;-57
2022/11/28 09:01:38;;;;;;;;;;;4.80;99.90;;;;;;5092613;28;19947;-57
2022/11/28 09:04:03;;;;;;;;;;;4.90;99.90;;;;;;5092937;28;19915;-58
2022/11/28 09:06:29;;;;;;;;;;;4.90;99.90;;;;;;5092794;28;19991;-57
2022/11/28 09:08:54;;;;;;;;;;;4.90;99.90;;;;;;5092742;28;20335;-57
2022/11/28 09:11:20;;;;;;;;;;;4.90;99.90;;;;;;5092630;28;19914;-54
2022/11/28 09:13:46;;;;;;;;;;;4.90;99.90;;;;;;5093352;28;19907;-56
2022/11/28 09:16:12;;;;;;;;;;;4.90;99.90;;;;;;5092696;28;19958;-58
2022/11/28 09:18:38;;;;;;;;;;;4.90;99.90;;;;;;5093098;28;19908;-55
2022/11/28 09:21:07;;;;;;;;;;;4.90;99.90;;;;;;5092721;28;19999;-57
2022/11/28 09:23:33;;;;;;;;;;;5.00;99.90;;;;;;5092415;28;19911;-57
2022/11/28 09:25:59;;;;;;;;;;;4.90;99.90;;;;;;5092257;28;19908;-58
2022/11/28 09:28:27;;;;;;;;;;;4.90;99.90;;;;;;5092753;28;19912;-58
2022/11/28 09:31:00;;;;;;;;;;;5.00;99.90;;;;;;5073893;28;20032;-53
2022/11/28 09:33:25;;;;;;;;;;;4.90;99.90;;;;;;5092126;28;19908;-57
2022/11/28 09:35:51;;;;;;;;;;;5.00;99.90;;;;;;5091861;28;19908;-57
2022/11/28 09:38:16;;;;;;;;;;;5.00;99.90;;;;;;5091354;28;19912;-58
2022/11/28 09:40:42;;;;;;;;;;;5.00;99.90;;;;;;5075826;28;20340;-57
2022/11/28 09:43:12;;;;;;;;;;;5.00;99.90;;;;;;5082358;28;20308;-58
2022/11/28 09:45:38;;;;;;;;;;;5.00;99.90;;;;;;5075507;28;19916;-57
2022/11/28 09:48:23;;;;;;;;;;;5.10;99.90;;;;;;5090839;28;19968;-56
2022/11/28 09:50:51;;;;;;;;;;;5.10;99.90;;;;;;5091754;28;19947;-56
2022/11/28 09:53:27;;;;;;;;;;;5.10;99.90;;;;;;5088392;28;20037;-58
2022/11/28 09:55:54;;;;;;;;;;;5.10;99.90;;;;;;5092170;28;19904;-57
2022/11/28 09:58:35;;;;;;;;;;;5.10;99.90;;;;;;5091945;28;19904;-58
2022/11/28 10:01:03;;;;;;;;;;;5.10;99.90;;;;;;5092182;28;20002;-58
2022/11/28 10:03:39;;;;;;;;;;;5.10;99.90;;;;;;5091660;28;19904;-58
2022/11/28 10:06:13;;;;;;;;;;;5.10;99.90;;;;;;5090912;28;19904;-58
2022/11/28 10:08:58;;;;;;;;;;;5.20;99.90;;;;;;5080355;28;20363;-58
2022/11/28 10:11:29;;;;;;;;;;;5.10;99.90;;;;;;5088018;28;19911;-58
2022/11/28 10:13:57;;;;;;;;;;;5.20;99.90;;;;;;5091672;28;20398;-59
2022/11/28 10:16:29;;;;;;;;;;;5.10;99.90;;;;;;5091346;28;19908;-55
2022/11/28 10:18:59;;;;;;;;;;;5.10;99.90;;;;;;5091450;28;20567;-59
2022/11/28 10:21:39;;;;;;;;;;;5.10;99.90;;;;;;5091375;28;19908;-58
2022/11/28 10:24:33;;;;;;;;;;;5.20;99.90;;;;;;5091354;28;19908;-58
2022/11/28 10:27:01;;;;;;;;;;;5.20;99.90;;;;;;5089197;28;19904;-59
2022/11/28 10:29:45;;;;;;;;;;;5.20;99.90;;;;;;5082026;28;19939;-59
2022/11/28 10:32:16;;;;;;;;;;;5.20;99.90;;;;;;5091342;28;19904;-58
2022/11/28 10:35:04;;;;;;;;;;;5.20;99.90;;;;;;5091596;28;19904;-59
2022/11/28 10:37:31;;;;;;;;;;;5.20;99.90;;;;;;5085271;28;19961;-57
2022/11/28 10:40:17;;;;;;;;;;;5.20;99.90;;;;;;5091177;28;19911;-57
2022/11/28 10:43:01;;;;;;;;;;;5.20;99.90;;;;;;5086654;28;19911;-57
2022/11/28 10:45:45;;;;;;;;;;;5.20;99.90;;;;;;5087558;28;20026;-58
2022/11/28 10:48:15;;;;;;;;;;;5.20;99.90;;;;;;5091116;28;20116;-57
2022/11/28 10:50:54;;;;;;;;;;;5.20;99.90;;;;;;5091041;28;20004;-57
2022/11/28 10:53:20;;;;;;;;;;;5.20;99.90;;;;;;5083147;28;19904;-58
2022/11/28 10:56:04;;;;;;;;;;;5.20;99.90;;;;;;5090868;28;19911;-57
2022/11/28 10:58:35;;;;;;;;;;;5.20;99.90;;;;;;5084599;28;19904;-59
2022/11/28 11:01:01;;;;;;;;;;;5.20;99.90;;;;;;5090567;28;19904;-56
2022/11/28 11:03:28;;;;;;;;;;;5.20;99.90;;;;;;5091211;28;19912;-58
2022/11/28 11:05:54;;;;;;;;;;;5.20;99.90;;;;;;5090547;28;20213;-58
2022/11/28 11:08:21;;;;;;;;;;;5.20;99.90;;;;;;5090259;28;20003;-54
2022/11/28 11:10:51;;;;;;;;;;;5.20;99.90;;;;;;5091061;28;19908;-58
2022/11/28 11:13:24;;;;;;;;;;;5.10;99.90;;;;;;5088790;28;19911;-60
2022/11/28 11:16:06;;;;;;;;;;;5.10;99.90;;;;;;5076580;28;19911;-59
2022/11/28 11:18:36;;;;;;;;;;;5.10;99.90;;;;;;5089988;28;20430;-57
2022/11/28 11:21:20;;;;;;;;;;;5.10;99.90;;;;;;5090456;28;19904;-57
2022/11/28 11:23:47;;;;;;;;;;;5.10;99.90;;;;;;5086536;28;19908;-57
2022/11/28 11:26:27;;;;;;;;;;;5.10;99.90;;;;;;5090720;28;19997;-58
2022/11/28 11:28:53;;;;;;;;;;;5.10;99.90;;;;;;5087485;28;19908;-60
2022/11/28 11:31:22;;;;;;;;;;;5.10;99.90;;;;;;5089046;28;19919;-58
2022/11/28 11:33:52;;;;;;;;;;;5.10;99.90;;;;;;5070403;28;19915;-59
2022/11/28 11:36:26;;;;;;;;;;;5.10;99.90;;;;;;5082218;28;19911;-59
2022/11/28 11:39:02;;;;;;;;;;;5.00;99.90;;;;;;5090332;28;20298;-58
2022/11/28 11:41:29;;;;;;;;;;;5.10;99.90;;;;;;5090287;28;20055;-56
2022/11/28 11:43:55;;;;;;;;;;;5.00;99.90;;;;;;5090064;28;19908;-59
2022/11/28 11:46:21;;;;;;;;;;;5.00;99.90;;;;;;5089889;28;19919;-57
2022/11/28 11:48:49;;;;;;;;;;;5.00;99.90;;;;;;5090681;28;19912;-58
2022/11/28 11:51:25;;;;;;;;;;;5.00;99.90;;;;;;5089649;28;20291;-60
2022/11/28 11:53:59;;;;;;;;;;;5.00;99.90;;;;;;5090383;28;19911;-59
2022/11/28 11:56:26;;;;;;;;;;;5.00;99.90;;;;;;5090049;28;20287;-57
2022/11/28 11:58:53;;;;;;;;;;;5.00;99.90;;;;;;5090238;28;20004;-58
2022/11/28 12:01:20;;;;;;;;;;;5.00;99.90;;;;;;5089662;28;19931;-57
2022/11/28 12:04:00;;;;;;;;;;;4.90;99.90;;;;;;5090274;28;20366;-58
2022/11/28 12:06:34;;;;;;;;;;;4.90;99.90;;;;;;5087336;28;19912;-59
2022/11/28 12:09:06;;;;;;;;;;;4.80;99.90;;;;;;5089532;28;20447;-59
2022/11/28 12:11:34;;;;;;;;;;;4.80;99.90;;;;;;5089561;28;19911;-58
2022/11/28 12:14:08;;;;;;;;;;;4.80;99.90;;;;;;5089252;28;19904;-58
2022/11/28 12:16:39;;;;;;;;;;;4.80;99.90;;;;;;5089802;28;19904;-58
2022/11/28 12:19:11;;;;;;;;;;;4.80;99.90;;;;;;5089734;28;19907;-59
2022/11/28 12:21:37;;;;;;;;;;;4.80;99.90;;;;;;5089489;28;20006;-57
2022/11/28 12:24:07;;;;;;;;;;;4.70;99.90;;;;;;5089612;28;19998;-59
2022/11/28 12:26:32;;;;;;;;;;;4.70;99.90;;;;;;5089470;28;19912;-58
2022/11/28 12:29:07;;;;;;;;;;;4.70;99.90;;;;;;5089370;28;20162;-55
2022/11/28 12:31:44;;;;;;;;;;;4.70;99.90;;;;;;5092071;28;19909;-59
2022/11/28 12:34:28;;;;;;;;;;;4.70;99.90;;;;;;5093369;28;19912;-58
2022/11/28 12:37:12;;;;;;;;;;;4.70;99.90;;;;;;5092845;28;20359;-57
2022/11/28 12:39:58;;;;;;;;;;;4.70;99.90;;;;;;5093161;28;19908;-59
2022/11/28 12:42:28;;;;;;;;;;;4.60;99.90;;;;;;5092572;28;19973;-59
2022/11/28 12:45:17;;;;;;;;;;;4.60;99.90;;;;;;5093491;28;19951;-58
2022/11/28 12:47:42;;;;;;;;;;;4.60;99.90;;;;;;5078716;22;19928;-66
2022/11/28 12:50:10;;;;;;;;;;;4.60;99.90;;;;;;5072186;28;20280;-66
2022/11/28 12:52:36;;;;;;;;;;;4.60;99.90;;;;;;5072002;28;19909;-66
2022/11/28 12:55:18;;;;;;;;;;;4.70;99.90;;;;;;5071747;28;19908;-65
2022/11/28 12:57:46;;;;;;;;;;;4.60;99.90;;;;;;5058820;28;19908;-65
2022/11/28 13:00:23;;;;;;;;;;;4.60;99.90;;;;;;5072190;28;19908;-64
2022/11/28 13:02:54;;;;;;;;;;;4.60;99.90;;;;;;5071960;28;19995;-66
2022/11/28 13:05:29;;;;;;;;;;;4.60;99.90;;;;;;5071659;28;19931;-67
2022/11/28 13:08:00;;;;;;;;;;;4.60;99.90;;;;;;5072071;28;19958;-66
2022/11/28 13:10:30;;;;;;;;;;;4.60;99.90;;;;;;5072204;28;19913;-66
2022/11/28 13:12:59;;;;;;;;;;;4.50;99.90;;;;;;5071364;28;19904;-66
2022/11/28 13:15:33;;;;;;;;;;;4.50;99.90;;;;;;5072141;28;19906;-65
2022/11/28 13:18:08;;;;;;;;;;;4.50;99.90;;;;;;5076853;28;19908;-65
2022/11/28 13:20:51;;;;;;;;;;;4.50;99.90;;;;;;5072105;28;19908;-64
2022/11/28 13:23:22;;;;;;;;;;;4.50;99.90;;;;;;5070606;28;19908;-66
2022/11/28 13:25:51;;;;;;;;;;;4.60;99.90;;;;;;5072266;28;19950;-65
2022/11/28 13:28:23;;;;;;;;;;;4.60;99.90;;;;;;5066734;28;20003;-66
2022/11/28 13:30:51;;;;;;;;;;;4.50;99.90;;;;;;5072221;28;19950;-66
2022/11/28 13:33:35;;;;;;;;;;;4.60;99.90;;;;;;5066226;28;20422;-65
2022/11/28 13:36:01;;;;;;;;;;;4.50;99.90;;;;;;5062465;28;20022;-66
2022/11/28 13:38:43;;;;;;;;;;;4.50;99.90;;;;;;5071543;28;19908;-65
2022/11/28 13:41:19;;;;;;;;;;;4.50;99.90;;;;;;5071276;28;19915;-65
2022/11/28 13:43:55;;;;;;;;;;;4.50;99.90;;;;;;5071250;28;19923;-66
2022/11/28 13:46:21;;;;;;;;;;;4.50;99.90;;;;;;5063315;28;19916;-66
2022/11/28 13:48:47;;;;;;;;;;;4.50;99.90;;;;;;5071863;28;20260;-66
2022/11/28 13:51:21;;;;;;;;;;;4.40;99.90;;;;;;5060848;28;19950;-67
2022/11/28 13:53:48;;;;;;;;;;;4.40;99.90;;;;;;5068124;28;19909;-65
2022/11/28 13:56:20;;;;;;;;;;;4.40;99.90;;;;;;5071553;28;20062;-65
2022/11/28 13:58:49;;;;;;;;;;;4.40;99.90;;;;;;5063447;28;20000;-66
2022/11/28 14:01:16;;;;;;;;;;;4.40;99.90;;;;;;5070850;28;19905;-65
2022/11/28 14:04:00;;;;;;;;;;;4.40;99.90;;;;;;5071213;28;19970;-64
2022/11/28 14:06:29;;;;;;;;;;;4.30;99.90;;;;;;5068554;28;20136;-65
2022/11/28 14:08:58;;;;;;;;;;;4.30;99.90;;;;;;5071434;28;19919;-64
2022/11/28 14:11:42;;;;;;;;;;;4.30;99.90;;;;;;5070649;28;19996;-65
2022/11/28 14:14:19;;;;;;;;;;;4.30;99.90;;;;;;5071027;28;20049;-65
2022/11/28 14:17:07;;;;;;;;;;;4.30;99.90;;;;;;5071037;28;19954;-65
2022/11/28 14:19:40;;;;;;;;;;;4.30;99.90;;;;;;5065706;28;19908;-64
2022/11/28 14:22:15;;;;;;;;;;;4.30;99.90;;;;;;5055474;28;19915;-65
2022/11/28 14:24:44;;;;;;;;;;;4.30;99.90;;;;;;5071822;28;19908;-65
2022/11/28 14:27:17;;;;;;;;;;;4.30;99.90;;;;;;5070285;28;19912;-64
2022/11/28 14:29:46;;;;;;;;;;;4.20;99.90;;;;;;5070936;28;20335;-64
2022/11/28 14:32:22;;;;;;;;;;;4.30;99.90;;;;;;5070936;28;20003;-65
2022/11/28 14:34:48;;;;;;;;;;;4.20;99.90;;;;;;5071174;28;19957;-64
2022/11/28 14:37:20;;;;;;;;;;;4.20;99.90;;;;;;5070812;28;19908;-65
2022/11/28 14:39:52;;;;;;;;;;;4.20;99.90;;;;;;5070773;28;19961;-65
2022/11/28 14:42:24;;;;;;;;;;;4.20;99.90;;;;;;5069320;28;19959;-64
2022/11/28 14:44:53;;;;;;;;;;;4.20;99.90;;;;;;5070366;28;19908;-65